createdAt,value
2022-11-26T00:00:51.072Z,15.45
2022-11-26T00:03:18.149Z,12.00
2022-11-26T00:05:47.429Z,12.95
2022-11-26T00:08:26.386Z,15.68
2022-11-26T00:10:54.447Z,13.77
2022-11-26T00:13:24.926Z,14.60
2022-11-26T00:15:52.358Z,12.55
2022-11-26T00:18:19.295Z,12.75
2022-11-26T00:20:50.955Z,12.48
2022-11-26T00:23:23.279Z,12.10
2022-11-26T00:25:54.911Z,11.10
2022-11-26T00:28:33.523Z,11.95
2022-11-26T00:31:06.918Z,10.98
2022-11-26T00:33:33.932Z,12.20
2022-11-26T00:36:25.704Z,11.45
2022-11-26T00:38:56.623Z,11.05
2022-11-26T00:41:25.343Z,10.27
2022-11-26T00:43:52.189Z,11.48
2022-11-26T00:46:21.277Z,11.88
2022-11-26T00:48:48.329Z,11.30
2022-11-26T00:51:18.734Z,11.98
2022-11-26T00:53:46.611Z,11.93
2022-11-26T00:56:16.443Z,12.45
2022-11-26T00:58:42.808Z,13.60
2022-11-26T01:01:12.304Z,13.05
2022-11-26T01:03:42.782Z,13.20
2022-11-26T01:06:24.468Z,14.52
2022-11-26T01:08:50.887Z,13.80
2022-11-26T01:11:22.085Z,13.65
2022-11-26T01:13:50.222Z,14.57
2022-11-26T01:16:16.704Z,14.95
2022-11-26T01:18:43.206Z,14.15
2022-11-26T01:21:11.582Z,14.93
2022-11-26T01:23:38.220Z,15.13
2022-11-26T01:26:06.604Z,17.07
2022-11-26T01:28:33.445Z,15.75
2022-11-26T01:30:59.872Z,16.40
2022-11-26T01:33:26.236Z,16.42
2022-11-26T01:35:52.627Z,16.88
2022-11-26T01:38:19.019Z,16.77
2022-11-26T01:40:50.367Z,16.73
2022-11-26T01:43:27.480Z,17.10
2022-11-26T01:45:56.317Z,18.42
2022-11-26T01:48:30.405Z,16.50
2022-11-26T01:50:58.838Z,15.57
2022-11-26T01:53:51.112Z,15.73
2022-11-26T01:56:30.798Z,15.15
2022-11-26T01:59:06.330Z,14.82
2022-11-26T02:01:33.978Z,14.68
2022-11-26T02:04:26.615Z,14.07
2022-11-26T02:06:55.602Z,15.95
2022-11-26T02:09:23.671Z,15.30
2022-11-26T02:11:50.207Z,14.55
2022-11-26T02:14:24.408Z,15.52
2022-11-26T02:16:58.192Z,15.55
2022-11-26T02:19:43.017Z,14.40
2022-11-26T02:22:28.155Z,15.00
2022-11-26T02:25:23.298Z,13.90
2022-11-26T02:27:52.696Z,13.00
2022-11-26T02:30:19.545Z,14.75
2022-11-26T02:33:12.649Z,13.32
2022-11-26T02:35:46.426Z,12.98
2022-11-26T02:38:19.311Z,11.98
2022-11-26T02:40:45.652Z,12.80
2022-11-26T02:43:13.945Z,13.57
2022-11-26T02:45:44.155Z,13.40
2022-11-26T02:48:18.135Z,15.35
2022-11-26T02:50:49.597Z,13.88
2022-11-26T02:53:19.667Z,14.05
2022-11-26T02:55:51.072Z,15.23
2022-11-26T02:58:19.296Z,15.85
2022-11-26T03:00:48.596Z,15.50
2022-11-26T03:03:26.470Z,15.13
2022-11-26T03:05:55.997Z,15.32
2022-11-26T03:08:22.651Z,15.30
2022-11-26T03:10:49.022Z,15.63
2022-11-26T03:13:15.798Z,14.95
2022-11-26T03:15:42.243Z,14.43
2022-11-26T03:18:08.699Z,15.98
2022-11-26T03:20:35.116Z,17.80
2022-11-26T03:23:01.720Z,15.57
2022-11-26T03:25:28.142Z,16.38
2022-11-26T03:27:54.573Z,16.77
2022-11-26T03:30:21.176Z,16.25
2022-11-26T03:32:47.609Z,16.55
2022-11-26T03:35:14.120Z,16.83
2022-11-26T03:37:40.686Z,16.42
2022-11-26T03:40:08.271Z,16.60
2022-11-26T03:45:00.929Z,16.15
2022-11-26T03:47:27.430Z,17.40
2022-11-26T03:49:53.984Z,17.05
2022-11-26T03:52:20.652Z,19.23
2022-11-26T03:54:47.093Z,19.53
2022-11-26T03:57:13.560Z,16.20
2022-11-26T03:59:39.957Z,16.73
2022-11-26T04:02:06.873Z,17.20
2022-11-26T04:04:33.849Z,18.73
2022-11-26T04:07:00.345Z,17.55
2022-11-26T04:09:26.706Z,17.98
2022-11-26T04:11:53.145Z,18.70
2022-11-26T04:14:19.603Z,18.50
2022-11-26T04:16:46.150Z,18.67
2022-11-26T04:19:12.523Z,18.70
2022-11-26T04:21:38.971Z,19.13
2022-11-26T04:24:05.512Z,18.90
2022-11-26T04:26:31.986Z,18.58
2022-11-26T04:28:58.539Z,18.93
2022-11-26T04:31:25.152Z,19.60
2022-11-26T04:33:51.739Z,18.85
2022-11-26T04:36:18.315Z,19.10
2022-11-26T04:38:44.718Z,22.15
2022-11-26T04:41:11.064Z,20.08
2022-11-26T04:43:37.451Z,19.85
2022-11-26T04:46:03.890Z,19.65
2022-11-26T04:48:30.328Z,20.15
2022-11-26T04:50:56.738Z,19.85
2022-11-26T04:53:23.241Z,21.25
2022-11-26T04:55:51.093Z,20.65
2022-11-26T04:58:19.113Z,22.20
2022-11-26T05:00:50.622Z,21.77
2022-11-26T05:03:18.994Z,20.52
2022-11-26T05:08:11.771Z,21.13
2022-11-26T05:10:38.160Z,21.95
2022-11-26T05:13:04.565Z,22.05
2022-11-26T05:15:31.014Z,22.35
2022-11-26T05:17:57.508Z,23.17
2022-11-26T05:20:24.145Z,21.75
2022-11-26T05:22:50.579Z,22.27
2022-11-26T05:25:17.107Z,21.70
2022-11-26T05:27:43.532Z,20.55
2022-11-26T05:30:10.537Z,22.23
2022-11-26T05:32:36.919Z,20.65
2022-11-26T05:35:03.870Z,20.58
2022-11-26T05:37:30.405Z,20.63
2022-11-26T05:39:56.824Z,22.27
2022-11-26T05:42:23.424Z,20.65
2022-11-26T05:44:49.797Z,20.63
2022-11-26T05:47:16.277Z,19.45
2022-11-26T05:49:42.645Z,21.15
2022-11-26T05:52:09.058Z,21.50
2022-11-26T05:54:35.560Z,21.08
2022-11-26T05:57:02.093Z,19.97
2022-11-26T05:59:29.374Z,18.70
2022-11-26T06:01:55.999Z,21.60
2022-11-26T06:04:22.871Z,20.17
2022-11-26T06:06:49.441Z,21.30
2022-11-26T06:09:15.823Z,19.48
2022-11-26T06:11:42.336Z,21.48
2022-11-26T06:14:10.362Z,22.83
2022-11-26T06:16:36.924Z,22.52
2022-11-26T06:19:03.561Z,22.83
2022-11-26T06:21:29.984Z,25.95
2022-11-26T06:23:59.591Z,24.38
2022-11-26T06:26:26.770Z,28.55
2022-11-26T06:28:53.189Z,25.30
2022-11-26T06:31:19.790Z,44.85
2022-11-26T06:33:46.317Z,23.77
2022-11-26T06:36:12.834Z,27.65
2022-11-26T06:38:39.209Z,27.05
2022-11-26T06:41:07.564Z,27.00
2022-11-26T06:43:34.117Z,25.77
2022-11-26T06:46:03.528Z,28.05
2022-11-26T06:48:30.350Z,28.25
2022-11-26T06:50:57.213Z,25.07
2022-11-26T06:53:23.565Z,28.27
2022-11-26T06:55:50.257Z,28.05
2022-11-26T06:58:16.790Z,25.37
2022-11-26T07:00:43.232Z,25.95
2022-11-26T07:03:10.427Z,24.88
2022-11-26T07:05:37.805Z,26.08
2022-11-26T07:08:04.592Z,24.38
2022-11-26T07:10:31.017Z,25.08
2022-11-26T07:12:57.465Z,28.38
2022-11-26T07:15:24.049Z,27.30
2022-11-26T07:17:50.532Z,27.75
2022-11-26T07:20:17.114Z,24.70
2022-11-26T07:22:43.613Z,27.80
2022-11-26T07:25:12.704Z,29.67
2022-11-26T07:27:39.638Z,27.77
2022-11-26T07:30:06.793Z,28.27
2022-11-26T07:32:33.578Z,27.23
2022-11-26T07:35:01.787Z,28.95
2022-11-26T07:37:28.463Z,31.00
2022-11-26T07:39:54.848Z,27.33
2022-11-26T07:42:21.278Z,29.88
2022-11-26T07:44:47.616Z,27.75
2022-11-26T07:47:14.054Z,27.42
2022-11-26T07:49:40.456Z,27.33
2022-11-26T07:52:06.936Z,26.98
2022-11-26T07:54:33.806Z,27.77
2022-11-26T07:57:00.189Z,24.73
2022-11-26T07:59:26.793Z,25.58
2022-11-26T08:01:53.206Z,29.48
2022-11-26T08:04:19.701Z,26.35
2022-11-26T08:06:46.157Z,26.17
2022-11-26T08:09:12.687Z,30.65
2022-11-26T08:11:39.131Z,26.23
2022-11-26T08:14:09.476Z,25.52
2022-11-26T08:16:36.108Z,34.35
2022-11-26T08:19:05.810Z,27.17
2022-11-26T08:21:32.754Z,26.98
2022-11-26T08:23:59.616Z,28.63
2022-11-26T08:26:33.932Z,26.77
2022-11-26T08:29:01.548Z,28.67
2022-11-26T08:31:28.548Z,27.40
2022-11-26T08:34:00.044Z,29.33
2022-11-26T08:36:27.587Z,29.58
2022-11-26T08:38:54.328Z,27.35
2022-11-26T08:41:21.280Z,30.97
2022-11-26T08:46:35.459Z,28.13
2022-11-26T08:49:02.033Z,27.00
2022-11-26T08:51:28.520Z,27.67
2022-11-26T08:53:54.972Z,23.73
2022-11-26T08:56:21.830Z,26.08
2022-11-26T08:58:48.914Z,25.23
2022-11-26T09:01:21.848Z,22.85
2022-11-26T09:03:52.553Z,24.92
2022-11-26T09:06:20.562Z,24.30
2022-11-26T09:09:06.124Z,23.38
2022-11-26T09:11:35.559Z,24.00
2022-11-26T09:14:03.036Z,25.05
2022-11-26T09:16:30.180Z,22.45
2022-11-26T09:19:00.078Z,22.83
2022-11-26T09:21:27.233Z,20.98
2022-11-26T09:23:54.702Z,21.30
2022-11-26T09:26:21.807Z,21.35
2022-11-26T09:28:49.183Z,20.65
2022-11-26T09:31:16.761Z,20.08
2022-11-26T09:36:13.268Z,21.17
2022-11-26T09:38:40.835Z,18.88
2022-11-26T09:43:57.479Z,17.95
2022-11-26T09:46:41.015Z,18.08
2022-11-26T09:49:18.259Z,17.48
2022-11-26T09:51:47.425Z,16.70
2022-11-26T09:54:18.285Z,17.17
2022-11-26T09:56:44.920Z,16.33
2022-11-26T09:59:18.764Z,15.87
2022-11-26T10:01:45.189Z,14.43
2022-11-26T10:04:28.998Z,15.48
2022-11-26T10:06:58.125Z,14.98
2022-11-26T10:09:48.211Z,13.98
2022-11-26T10:12:31.405Z,13.98
2022-11-26T10:15:31.335Z,13.52
2022-11-26T10:18:03.595Z,14.63
2022-11-26T10:20:38.707Z,14.80
2022-11-26T10:23:11.084Z,13.00
2022-11-26T10:25:54.647Z,12.75
2022-11-26T10:28:42.913Z,13.23
2022-11-26T10:31:20.485Z,14.00
2022-11-26T10:33:49.810Z,12.77
2022-11-26T10:36:24.402Z,12.65
2022-11-26T10:38:51.008Z,13.18
2022-11-26T10:41:18.289Z,11.80
2022-11-26T10:43:44.927Z,12.82
2022-11-26T10:46:31.117Z,13.33
2022-11-26T10:49:16.595Z,13.93
2022-11-26T10:51:47.536Z,13.10
2022-11-26T10:54:35.306Z,13.77
2022-11-26T10:57:11.472Z,12.30
2022-11-26T10:59:43.818Z,12.38
2022-11-26T11:02:22.341Z,12.15
2022-11-26T11:04:52.722Z,12.52
2022-11-26T11:07:41.147Z,11.50
2022-11-26T11:10:10.771Z,11.73
2022-11-26T11:12:42.256Z,11.90
2022-11-26T11:15:29.852Z,11.60
2022-11-26T11:18:01.220Z,10.80
2022-11-26T11:20:39.270Z,11.52
2022-11-26T11:23:11.523Z,11.85
2022-11-26T11:25:47.319Z,11.15
2022-11-26T11:28:21.503Z,11.23
2022-11-26T11:30:59.662Z,10.98
2022-11-26T11:36:06.798Z,11.32
2022-11-26T11:38:46.877Z,11.10
2022-11-26T11:41:22.129Z,11.32
2022-11-26T11:43:48.754Z,10.93
2022-11-26T11:46:17.898Z,11.60
2022-11-26T11:48:53.284Z,10.75
2022-11-26T11:51:31.971Z,10.77
2022-11-26T11:54:17.504Z,10.50
2022-11-26T11:57:30.684Z,10.98
2022-11-26T12:00:11.997Z,11.23
2022-11-26T12:02:57.901Z,10.80
2022-11-26T12:05:52.135Z,10.80
2022-11-26T12:08:39.634Z,11.57
2022-11-26T12:11:24.790Z,10.55
2022-11-26T12:14:18.993Z,10.38
2022-11-26T12:16:49.586Z,10.10
2022-11-26T12:19:29.063Z,9.90
2022-11-26T12:22:07.000Z,10.48
2022-11-26T12:24:54.314Z,10.10
2022-11-26T12:27:43.433Z,10.00
2022-11-26T12:30:22.813Z,10.35
2022-11-26T12:33:16.439Z,10.32
2022-11-26T12:35:52.012Z,10.18
2022-11-26T12:38:27.888Z,10.02
2022-11-26T12:41:16.445Z,10.70
2022-11-26T12:44:05.530Z,8.82
2022-11-26T12:46:58.059Z,9.85
2022-11-26T12:49:31.663Z,9.77
2022-11-26T12:52:17.225Z,9.93
2022-11-26T12:55:15.682Z,10.10
2022-11-26T12:58:02.643Z,9.23
2022-11-26T13:00:36.322Z,8.95
2022-11-26T13:03:05.781Z,9.10
2022-11-26T13:05:49.968Z,9.23
2022-11-26T13:08:30.020Z,8.73
2022-11-26T13:11:33.543Z,8.80
2022-11-26T13:14:09.153Z,8.88
2022-11-26T13:16:47.226Z,9.73
2022-11-26T13:22:17.339Z,8.23
2022-11-26T13:24:53.022Z,8.55
2022-11-26T13:27:48.037Z,8.18
2022-11-26T13:30:44.959Z,8.88
2022-11-26T13:33:27.862Z,8.15
2022-11-26T13:36:46.536Z,9.48
2022-11-26T13:39:31.598Z,9.55
2022-11-26T13:42:35.185Z,8.32
2022-11-26T13:45:15.155Z,8.57
2022-11-26T13:47:48.223Z,7.63
2022-11-26T13:50:25.048Z,6.90
2022-11-26T13:53:01.285Z,7.10
2022-11-26T13:55:32.719Z,7.22
2022-11-26T13:58:04.319Z,8.95
2022-11-26T14:00:33.296Z,8.77
2022-11-26T14:03:01.798Z,9.15
2022-11-26T14:05:51.103Z,10.20
2022-11-26T14:08:41.138Z,11.50
2022-11-26T14:11:08.766Z,12.20
2022-11-26T14:13:35.316Z,14.25
2022-11-26T14:16:07.616Z,13.20
2022-11-26T14:18:49.523Z,12.48
2022-11-26T14:21:18.078Z,12.15
2022-11-26T14:23:46.365Z,10.63
2022-11-26T14:26:21.379Z,11.07
2022-11-26T14:28:48.666Z,9.40
2022-11-26T14:31:23.420Z,10.30
2022-11-26T14:33:54.636Z,10.27
2022-11-26T14:36:27.257Z,8.85
2022-11-26T14:39:08.930Z,9.57
2022-11-26T14:41:51.667Z,7.63
2022-11-26T14:44:19.567Z,9.20
2022-11-26T14:46:49.017Z,10.57
2022-11-26T14:49:18.186Z,7.05
2022-11-26T14:51:47.586Z,9.30
2022-11-26T14:54:22.657Z,7.07
2022-11-26T14:56:49.335Z,8.82
2022-11-26T14:59:18.590Z,8.00
2022-11-26T15:01:46.677Z,7.68
2022-11-26T15:04:45.578Z,7.78
2022-11-26T15:07:24.558Z,8.70
2022-11-26T15:10:02.554Z,7.80
2022-11-26T15:12:29.637Z,8.00
2022-11-26T15:14:59.018Z,7.82
2022-11-26T15:17:29.524Z,8.55
2022-11-26T15:19:59.672Z,9.40
2022-11-26T15:22:35.074Z,8.27
2022-11-26T15:25:01.716Z,8.50
2022-11-26T15:27:39.876Z,7.55
2022-11-26T15:35:16.131Z,9.80
2022-11-26T15:37:42.652Z,10.60
2022-11-26T15:40:29.908Z,9.80
2022-11-26T15:42:59.439Z,9.57
2022-11-26T15:45:39.783Z,11.10
2022-11-26T15:48:27.167Z,11.18
2022-11-26T15:50:59.021Z,12.32
2022-11-26T15:53:35.278Z,11.82
2022-11-26T15:56:03.475Z,13.07
2022-11-26T15:58:33.917Z,11.95
2022-11-26T16:01:02.791Z,10.75
2022-11-26T16:03:45.308Z,9.70
2022-11-26T16:06:30.439Z,9.55
2022-11-26T16:09:09.028Z,8.88
2022-11-26T16:11:40.850Z,9.55
2022-11-26T16:14:36.167Z,8.57
2022-11-26T16:17:13.387Z,8.20
2022-11-26T16:19:47.970Z,8.03
2022-11-26T16:22:17.114Z,8.15
2022-11-26T16:24:43.870Z,8.52
2022-11-26T16:27:22.396Z,8.40
2022-11-26T16:29:48.960Z,8.15
2022-11-26T16:32:17.321Z,9.33
2022-11-26T16:34:44.437Z,13.05
2022-11-26T16:37:22.844Z,12.05
2022-11-26T16:39:51.943Z,9.65
2022-11-26T16:42:23.590Z,10.30
2022-11-26T16:44:50.535Z,9.80
2022-11-26T16:47:26.695Z,9.18
2022-11-26T16:49:53.762Z,9.07
2022-11-26T16:52:20.838Z,8.10
2022-11-26T16:54:48.122Z,8.43
2022-11-26T16:57:17.509Z,7.63
2022-11-26T16:59:46.335Z,8.20
2022-11-26T17:02:23.645Z,7.93
2022-11-26T17:04:50.332Z,8.32
2022-11-26T17:07:39.489Z,8.03
2022-11-26T17:10:07.096Z,9.27
2022-11-26T17:15:00.325Z,7.18
2022-11-26T17:17:30.200Z,8.50
2022-11-26T17:19:56.868Z,7.47
2022-11-26T17:22:26.455Z,7.77
2022-11-26T17:24:52.866Z,9.32
2022-11-26T17:27:21.247Z,7.20
2022-11-26T17:29:48.289Z,8.10
2022-11-26T17:32:17.411Z,7.25
2022-11-26T17:34:45.223Z,6.95
2022-11-26T17:37:27.475Z,7.53
2022-11-26T17:39:54.825Z,8.25
2022-11-26T17:42:22.801Z,8.25
2022-11-26T17:44:55.081Z,6.55
2022-11-26T17:47:23.844Z,8.27
2022-11-26T17:49:51.331Z,8.75
2022-11-26T17:52:18.227Z,8.13
2022-11-26T17:54:45.385Z,7.80
2022-11-26T17:57:13.458Z,7.10
2022-11-26T17:59:40.288Z,7.13
2022-11-26T18:02:07.323Z,7.65
2022-11-26T18:04:34.054Z,9.20
2022-11-26T18:07:12.077Z,8.03
2022-11-26T18:09:39.589Z,7.97
2022-11-26T18:12:08.428Z,7.88
2022-11-26T18:14:35.703Z,8.00
2022-11-26T18:19:30.370Z,6.95
2022-11-26T18:21:56.845Z,7.32
2022-11-26T18:24:23.246Z,7.97
2022-11-26T18:26:52.425Z,8.10
2022-11-26T18:29:18.805Z,9.68
2022-11-26T18:31:45.215Z,9.07
2022-11-26T18:34:11.657Z,8.82
2022-11-26T18:36:38.165Z,7.82
2022-11-26T18:39:05.668Z,6.55
2022-11-26T18:44:00.339Z,7.10
2022-11-26T18:46:26.759Z,7.05
2022-11-26T18:48:56.111Z,8.38
2022-11-26T18:51:22.773Z,6.78
2022-11-26T18:53:49.561Z,7.10
2022-11-26T18:56:18.393Z,7.70
2022-11-26T18:58:45.448Z,8.18
2022-11-26T19:01:23.527Z,8.10
2022-11-26T19:03:50.847Z,7.57
2022-11-26T19:06:20.442Z,7.88
2022-11-26T19:08:47.943Z,7.97
2022-11-26T19:13:43.246Z,10.82
2022-11-26T19:16:16.619Z,8.93
2022-11-26T19:18:44.667Z,8.30
2022-11-26T19:21:25.777Z,7.72
2022-11-26T19:23:53.673Z,7.95
2022-11-26T19:26:21.007Z,8.05
2022-11-26T19:28:48.111Z,7.63
2022-11-26T19:31:18.010Z,7.88
2022-11-26T19:33:49.136Z,7.55
2022-11-26T19:36:16.892Z,7.03
2022-11-26T19:38:44.445Z,7.28
2022-11-26T19:43:40.189Z,7.22
2022-11-26T19:46:11.306Z,6.65
2022-11-26T19:48:39.568Z,6.90
2022-11-26T19:51:07.568Z,7.63
2022-11-26T19:53:35.555Z,7.25
2022-11-26T19:56:04.979Z,7.43
2022-11-26T19:58:33.203Z,10.43
2022-11-26T20:01:00.607Z,16.48
2022-11-26T20:03:30.779Z,11.32
2022-11-26T20:06:12.707Z,11.85
2022-11-26T20:08:39.245Z,9.68
2022-11-26T20:11:07.630Z,9.57
2022-11-26T20:13:36.170Z,10.50
2022-11-26T20:16:11.147Z,10.60
2022-11-26T20:18:39.628Z,9.30
2022-11-26T20:21:10.670Z,8.75
2022-11-26T20:23:38.127Z,9.65
2022-11-26T20:26:12.324Z,8.70
2022-11-26T20:28:38.908Z,8.20
2022-11-26T20:31:06.116Z,8.75
2022-11-26T20:33:32.618Z,6.85
2022-11-26T20:35:59.011Z,7.13
2022-11-26T20:38:25.428Z,6.85
2022-11-26T20:40:51.793Z,7.35
2022-11-26T20:43:19.317Z,6.30
2022-11-26T20:48:13.270Z,6.55
2022-11-26T20:50:39.717Z,7.15
2022-11-26T20:53:06.194Z,7.22
2022-11-26T20:55:32.627Z,7.13
2022-11-26T20:57:59.103Z,7.25
2022-11-26T21:00:27.721Z,7.55
2022-11-26T21:02:54.399Z,6.80
2022-11-26T21:05:22.564Z,6.95
2022-11-26T21:07:50.764Z,6.85
2022-11-26T21:10:18.095Z,7.82
2022-11-26T21:12:44.495Z,8.32
2022-11-26T21:15:11.446Z,14.77
2022-11-26T21:17:38.030Z,11.65
2022-11-26T21:20:06.203Z,10.80
2022-11-26T21:22:32.788Z,10.63
2022-11-26T21:24:59.192Z,8.77
2022-11-26T21:27:25.583Z,8.98
2022-11-26T21:29:52.026Z,7.53
2022-11-26T21:32:18.446Z,8.50
2022-11-26T21:34:44.832Z,8.63
2022-11-26T21:37:11.285Z,7.45
2022-11-26T21:39:38.153Z,8.55
2022-11-26T21:42:04.772Z,9.00
2022-11-26T21:44:31.160Z,7.78
2022-11-26T21:46:57.823Z,6.50
2022-11-26T21:49:27.934Z,7.47
2022-11-26T21:51:54.348Z,6.72
2022-11-26T21:54:20.722Z,7.75
2022-11-26T21:56:47.087Z,6.95
2022-11-26T21:59:13.455Z,6.88
2022-11-26T22:01:40.288Z,6.43
2022-11-26T22:04:12.176Z,7.72
2022-11-26T22:06:38.798Z,9.15
2022-11-26T22:09:05.406Z,8.85
2022-11-26T22:11:35.666Z,6.88
2022-11-26T22:14:03.230Z,7.40
2022-11-26T22:18:58.221Z,7.25
2022-11-26T22:21:33.574Z,7.45
2022-11-26T22:24:01.834Z,8.20
2022-11-26T22:26:29.827Z,7.45
2022-11-26T22:28:56.574Z,7.45
2022-11-26T22:31:28.963Z,6.88
2022-11-26T22:33:59.647Z,7.43
2022-11-26T22:36:27.011Z,7.68
2022-11-26T22:38:53.878Z,7.10
2022-11-26T22:41:20.746Z,7.20
2022-11-26T22:43:47.156Z,7.97
2022-11-26T22:46:19.259Z,7.25
2022-11-26T22:48:52.063Z,7.40
2022-11-26T22:51:19.832Z,7.68
2022-11-26T22:53:51.149Z,9.18
2022-11-26T22:56:18.871Z,6.55
2022-11-26T22:58:45.606Z,7.57
2022-11-26T23:01:22.254Z,8.25
2022-11-26T23:03:49.663Z,7.40
2022-11-26T23:06:17.782Z,7.35
2022-11-26T23:08:45.048Z,7.00
2022-11-26T23:11:33.777Z,6.88
2022-11-26T23:14:02.124Z,7.05
2022-11-26T23:16:28.653Z,6.63
2022-11-26T23:18:56.692Z,7.95
2022-11-26T23:21:39.641Z,7.53
2022-11-26T23:24:07.575Z,6.82
2022-11-26T23:26:35.396Z,9.02
2022-11-26T23:29:02.714Z,7.03
2022-11-26T23:31:32.711Z,7.20
2022-11-26T23:33:59.463Z,7.63
2022-11-26T23:36:27.164Z,6.73
2022-11-26T23:38:53.734Z,7.55
2022-11-26T23:41:20.179Z,7.70
2022-11-26T23:43:47.054Z,6.90
2022-11-26T23:46:19.334Z,6.97
2022-11-26T23:48:46.710Z,7.57
2022-11-26T23:51:20.137Z,6.60
2022-11-26T23:53:47.912Z,7.47
2022-11-26T23:56:16.927Z,6.63
2022-11-26T23:58:43.354Z,8.82
